sensor_id;sensor_type;location;lat;lon;timestamp;pressure;altitude;pressure_sealevel;temperature;humidity
35151;BME280;55720;51.972;4.624;2023-04-07T00:01:20;102288.22;;;7.52;100.00
35151;BME280;55720;51.972;4.624;2023-04-07T00:03:45;102299.97;;;7.52;100.00
35151;BME280;55720;51.972;4.624;2023-04-07T00:06:11;102286.03;;;7.49;100.00
35151;BME280;55720;51.972;4.624;2023-04-07T00:08:36;102293.66;;;7.47;100.00
35151;BME280;55720;51.972;4.624;2023-04-07T00:11:02;102299.13;;;7.41;100.00
35151;BME280;55720;51.972;4.624;2023-04-07T00:13:27;102302.41;;;7.38;100.00
35151;BME280;55720;51.972;4.624;2023-04-07T00:15:53;102300.22;;;7.46;100.00
35151;BME280;55720;51.972;4.624;2023-04-07T00:18:18;102292.03;;;7.46;100.00
35151;BME280;55720;51.972;4.624;2023-04-07T00:20:43;102270.47;;;7.44;100.00
35151;BME280;55720;51.972;4.624;2023-04-07T00:23:09;102248.03;;;7.47;100.00
35151;BME280;55720;51.972;4.624;2023-04-07T00:25:34;102220.44;;;7.49;100.00
35151;BME280;55720;51.972;4.624;2023-04-07T00:28:00;102191.19;;;7.49;100.00
35151;BME280;55720;51.972;4.624;2023-04-07T00:30:25;102156.19;;;7.51;100.00
35151;BME280;55720;51.972;4.624;2023-04-07T00:32:51;102124.75;;;7.54;100.00
35151;BME280;55720;51.972;4.624;2023-04-07T00:35:16;102088.69;;;7.52;100.00
35151;BME280;55720;51.972;4.624;2023-04-07T00:37:42;102031.84;;;7.54;100.00
35151;BME280;55720;51.972;4.624;2023-04-07T00:40:08;101979.09;;;7.53;100.00
35151;BME280;55720;51.972;4.624;2023-04-07T00:42:33;101915.97;;;7.55;100.00
35151;BME280;55720;51.972;4.624;2023-04-07T00:51:30;101734.53;;;7.51;100.00
35151;BME280;55720;51.972;4.624;2023-04-07T00:53:56;101688.94;;;7.46;100.00
35151;BME280;55720;51.972;4.624;2023-04-07T00:56:22;101629.97;;;7.45;100.00
35151;BME280;55720;51.972;4.624;2023-04-07T00:58:47;101573.50;;;7.35;100.00
35151;BME280;55720;51.972;4.624;2023-04-07T01:01:17;101525.50;;;7.11;100.00
35151;BME280;55720;51.972;4.624;2023-04-07T01:03:57;101480.44;;;6.89;100.00
35151;BME280;55720;51.972;4.624;2023-04-07T01:06:29;101449.28;;;6.72;100.00
35151;BME280;55720;51.972;4.624;2023-04-07T01:11:49;101402.47;;;6.60;100.00
35151;BME280;55720;51.972;4.624;2023-04-07T01:14:19;101388.66;;;6.51;100.00
35151;BME280;55720;51.972;4.624;2023-04-07T01:16:48;101360.47;;;6.37;100.00
35151;BME280;55720;51.972;4.624;2023-04-07T01:21:49;101355.28;;;6.17;100.00
35151;BME280;55720;51.972;4.624;2023-04-07T01:26:51;101348.72;;;5.94;100.00
35151;BME280;55720;51.972;4.624;2023-04-07T01:31:48;101337.16;;;5.78;100.00
35151;BME280;55720;51.972;4.624;2023-04-07T01:34:15;101333.63;;;5.73;100.00
35151;BME280;55720;51.972;4.624;2023-04-07T01:36:41;101348.09;;;5.73;100.00
35151;BME280;55720;51.972;4.624;2023-04-07T01:39:08;101358.41;;;5.76;100.00
35151;BME280;55720;51.972;4.624;2023-04-07T01:41:35;101362.53;;;5.74;100.00
35151;BME280;55720;51.972;4.624;2023-04-07T01:44:01;101354.84;;;5.76;100.00
35151;BME280;55720;51.972;4.624;2023-04-07T01:46:28;101373.03;;;5.85;100.00
35151;BME280;55720;51.972;4.624;2023-04-07T01:48:55;101398.13;;;5.82;100.00
35151;BME280;55720;51.972;4.624;2023-04-07T01:51:22;101416.59;;;5.90;100.00
35151;BME280;55720;51.972;4.624;2023-04-07T01:53:48;101439.19;;;5.96;100.00
35151;BME280;55720;51.972;4.624;2023-04-07T01:56:14;101469.78;;;5.88;100.00
35151;BME280;55720;51.972;4.624;2023-04-07T01:58:40;101484.81;;;5.80;100.00
35151;BME280;55720;51.972;4.624;2023-04-07T02:01:06;101513.38;;;5.88;100.00
35151;BME280;55720;51.972;4.624;2023-04-07T02:03:39;101539.25;;;5.90;100.00
35151;BME280;55720;51.972;4.624;2023-04-07T02:06:08;101569.78;;;5.92;100.00
35151;BME280;55720;51.972;4.624;2023-04-07T02:08:41;101604.59;;;6.01;100.00
35151;BME280;55720;51.972;4.624;2023-04-07T02:11:10;101631.56;;;6.07;100.00
35151;BME280;55720;51.972;4.624;2023-04-07T02:13:37;101666.13;;;6.12;100.00
35151;BME280;55720;51.972;4.624;2023-04-07T02:16:05;101710.25;;;6.19;100.00
35151;BME280;55720;51.972;4.624;2023-04-07T02:18:31;101747.84;;;6.27;100.00
35151;BME280;55720;51.972;4.624;2023-04-07T02:20:58;101781.13;;;6.29;100.00
35151;BME280;55720;51.972;4.624;2023-04-07T02:23:25;101848.44;;;6.33;100.00
35151;BME280;55720;51.972;4.624;2023-04-07T02:25:55;101901.66;;;6.31;100.00
35151;BME280;55720;51.972;4.624;2023-04-07T02:28:21;101946.66;;;6.23;100.00
35151;BME280;55720;51.972;4.624;2023-04-07T02:30:46;101979.69;;;6.12;100.00
35151;BME280;55720;51.972;4.624;2023-04-07T02:33:11;102012.69;;;6.05;100.00
35151;BME280;55720;51.972;4.624;2023-04-07T02:35:36;102009.44;;;6.03;100.00
35151;BME280;55720;51.972;4.624;2023-04-07T02:38:02;102086.31;;;6.05;100.00
35151;BME280;55720;51.972;4.624;2023-04-07T02:40:27;102104.31;;;5.96;100.00
35151;BME280;55720;51.972;4.624;2023-04-07T02:42:53;102124.47;;;5.95;100.00
35151;BME280;55720;51.972;4.624;2023-04-07T02:45:18;102132.84;;;5.83;100.00
35151;BME280;55720;51.972;4.624;2023-04-07T02:47:43;102144.03;;;5.82;100.00
35151;BME280;55720;51.972;4.624;2023-04-07T02:50:09;102162.84;;;5.83;100.00
35151;BME280;55720;51.972;4.624;2023-04-07T02:52:34;102161.25;;;5.87;100.00
35151;BME280;55720;51.972;4.624;2023-04-07T02:55:00;102155.25;;;6.01;100.00
35151;BME280;55720;51.972;4.624;2023-04-07T02:57:25;102151.22;;;6.13;100.00
35151;BME280;55720;51.972;4.624;2023-04-07T02:59:51;102151.75;;;6.20;100.00
35151;BME280;55720;51.972;4.624;2023-04-07T03:02:16;102151.78;;;6.25;100.00
35151;BME280;55720;51.972;4.624;2023-04-07T03:04:41;102147.94;;;6.26;100.00
35151;BME280;55720;51.972;4.624;2023-04-07T03:07:07;102150.41;;;6.33;100.00
35151;BME280;55720;51.972;4.624;2023-04-07T03:09:32;102140.59;;;6.42;100.00
35151;BME280;55720;51.972;4.624;2023-04-07T03:11:58;102153.13;;;6.48;100.00
35151;BME280;55720;51.972;4.624;2023-04-07T03:14:23;102153.41;;;6.52;100.00
35151;BME280;55720;51.972;4.624;2023-04-07T03:16:49;102148.50;;;6.54;100.00
35151;BME280;55720;51.972;4.624;2023-04-07T03:19:14;102143.03;;;6.59;100.00
35151;BME280;55720;51.972;4.624;2023-04-07T03:21:40;102140.84;;;6.66;100.00
35151;BME280;55720;51.972;4.624;2023-04-07T03:24:06;102138.66;;;6.68;100.00
35151;BME280;55720;51.972;4.624;2023-04-07T03:26:32;102136.75;;;6.68;100.00
35151;BME280;55720;51.972;4.624;2023-04-07T03:28:57;102135.91;;;6.78;100.00
35151;BME280;55720;51.972;4.624;2023-04-07T03:31:23;102140.59;;;6.72;100.00
35151;BME280;55720;51.972;4.624;2023-04-07T03:33:49;102135.91;;;6.73;100.00
35151;BME280;55720;51.972;4.624;2023-04-07T03:36:14;102128.28;;;6.75;100.00
35151;BME280;55720;51.972;4.624;2023-04-07T03:38:41;102128.25;;;6.85;100.00
35151;BME280;55720;51.972;4.624;2023-04-07T03:41:06;102122.25;;;6.88;100.00
35151;BME280;55720;51.972;4.624;2023-04-07T03:43:32;102115.13;;;6.92;100.00
35151;BME280;55720;51.972;4.624;2023-04-07T03:45:57;102120.91;;;6.90;100.00
35151;BME280;55720;51.972;4.624;2023-04-07T03:48:23;102129.88;;;6.96;100.00
35151;BME280;55720;51.972;4.624;2023-04-07T03:50:48;102121.41;;;7.03;100.00
35151;BME280;55720;51.972;4.624;2023-04-07T03:53:13;102135.03;;;7.03;100.00
35151;BME280;55720;51.972;4.624;2023-04-07T03:55:41;102142.94;;;7.09;100.00
35151;BME280;55720;51.972;4.624;2023-04-07T03:58:06;102141.59;;;7.12;100.00
35151;BME280;55720;51.972;4.624;2023-04-07T04:00:32;102144.03;;;7.13;100.00
35151;BME280;55720;51.972;4.624;2023-04-07T04:02:58;102152.75;;;7.20;100.00
35151;BME280;55720;51.972;4.624;2023-04-07T04:05:24;102169.69;;;7.17;100.00
35151;BME280;55720;51.972;4.624;2023-04-07T04:07:49;102184.44;;;7.21;100.00
35151;BME280;55720;51.972;4.624;2023-04-07T04:10:17;102188.56;;;7.19;100.00
35151;BME280;55720;51.972;4.624;2023-04-07T04:12:43;102219.13;;;7.21;100.00
35151;BME280;55720;51.972;4.624;2023-04-07T04:15:09;102216.66;;;7.24;100.00
35151;BME280;55720;51.972;4.624;2023-04-07T04:17:34;102235.25;;;7.22;100.00
35151;BME280;55720;51.972;4.624;2023-04-07T04:20:00;102252.44;;;7.28;100.00
35151;BME280;55720;51.972;4.624;2023-04-07T04:22:25;102259.28;;;7.25;100.00
35151;BME280;55720;51.972;4.624;2023-04-07T04:24:51;102275.13;;;7.28;100.00
35151;BME280;55720;51.972;4.624;2023-04-07T04:29:45;102309.25;;;7.31;100.00
35151;BME280;55720;51.972;4.624;2023-04-07T04:32:11;102322.66;;;7.27;100.00
35151;BME280;55720;51.972;4.624;2023-04-07T04:34:36;102319.91;;;7.32;100.00
35151;BME280;55720;51.972;4.624;2023-04-07T04:37:02;102342.59;;;7.33;100.00
35151;BME280;55720;51.972;4.624;2023-04-07T04:39:27;102345.59;;;7.31;100.00
35151;BME280;55720;51.972;4.624;2023-04-07T04:41:53;102350.50;;;7.34;100.00
35151;BME280;55720;51.972;4.624;2023-04-07T04:44:18;102357.09;;;7.33;100.00
35151;BME280;55720;51.972;4.624;2023-04-07T04:46:43;102362.25;;;7.35;100.00
35151;BME280;55720;51.972;4.624;2023-04-07T04:49:09;102370.19;;;7.36;100.00
35151;BME280;55720;51.972;4.624;2023-04-07T04:51:34;102381.41;;;7.40;100.00
35151;BME280;55720;51.972;4.624;2023-04-07T04:53:59;102386.59;;;7.31;100.00
35151;BME280;55720;51.972;4.624;2023-04-07T04:56:25;102392.59;;;7.33;100.00
35151;BME280;55720;51.972;4.624;2023-04-07T04:58:50;102382.22;;;7.35;100.00
35151;BME280;55720;51.972;4.624;2023-04-07T05:01:16;102371.84;;;7.37;100.00
35151;BME280;55720;51.972;4.624;2023-04-07T05:03:41;102354.91;;;7.40;100.00
35151;BME280;55720;51.972;4.624;2023-04-07T05:06:07;102316.34;;;7.42;100.00
35151;BME280;55720;51.972;4.624;2023-04-07T05:08:32;102261.16;;;7.40;100.00
35151;BME280;55720;51.972;4.624;2023-04-07T05:10:57;102224.31;;;7.37;100.00
35151;BME280;55720;51.972;4.624;2023-04-07T05:13:23;102159.25;;;7.39;100.00
35151;BME280;55720;51.972;4.624;2023-04-07T05:15:49;102084.66;;;7.39;100.00
35151;BME280;55720;51.972;4.624;2023-04-07T05:18:15;102006.50;;;7.38;100.00
35151;BME280;55720;51.972;4.624;2023-04-07T05:20:40;101948.25;;;7.48;100.00
35151;BME280;55720;51.972;4.624;2023-04-07T05:23:05;101879.63;;;7.49;100.00
35151;BME280;55720;51.972;4.624;2023-04-07T05:25:31;101821.16;;;7.50;100.00
35151;BME280;55720;51.972;4.624;2023-04-07T05:27:57;101753.38;;;7.52;100.00
35151;BME280;55720;51.972;4.624;2023-04-07T05:30:24;101688.91;;;7.51;100.00
35151;BME280;55720;51.972;4.624;2023-04-07T05:32:49;101638.91;;;7.51;100.00
35151;BME280;55720;51.972;4.624;2023-04-07T05:35:15;101579.28;;;7.53;100.00
35151;BME280;55720;51.972;4.624;2023-04-07T05:37:40;101523.31;;;7.50;100.00
35151;BME280;55720;51.972;4.624;2023-04-07T05:40:06;101468.97;;;7.49;100.00
35151;BME280;55720;51.972;4.624;2023-04-07T05:42:31;101417.84;;;7.49;100.00
35151;BME280;55720;51.972;4.624;2023-04-07T05:44:57;101384.50;;;7.52;100.00
35151;BME280;55720;51.972;4.624;2023-04-07T05:47:23;101338.25;;;7.56;100.00
35151;BME280;55720;51.972;4.624;2023-04-07T05:49:48;101292.09;;;7.54;100.00
35151;BME280;55720;51.972;4.624;2023-04-07T05:52:14;101243.72;;;7.55;100.00
35151;BME280;55720;51.972;4.624;2023-04-07T05:54:39;101201.81;;;7.59;100.00
35151;BME280;55720;51.972;4.624;2023-04-07T05:57:05;101164.88;;;7.62;100.00
35151;BME280;55720;51.972;4.624;2023-04-07T05:59:32;101095.44;;;7.63;100.00
35151;BME280;55720;51.972;4.624;2023-04-07T06:01:57;101118.00;;;7.68;100.00
35151;BME280;55720;51.972;4.624;2023-04-07T06:07:25;101106.34;;;7.76;100.00
35151;BME280;55720;51.972;4.624;2023-04-07T06:09:51;101094.38;;;7.86;100.00
35151;BME280;55720;51.972;4.624;2023-04-07T06:12:16;101057.66;;;8.01;100.00
35151;BME280;55720;51.972;4.624;2023-04-07T06:14:42;101040.25;;;7.97;100.00
35151;BME280;55720;51.972;4.624;2023-04-07T06:17:07;101031.25;;;8.18;100.00
35151;BME280;55720;51.972;4.624;2023-04-07T06:19:32;101002.25;;;8.31;100.00
35151;BME280;55720;51.972;4.624;2023-04-07T06:21:58;100989.13;;;8.42;100.00
35151;BME280;55720;51.972;4.624;2023-04-07T06:24:23;100967.28;;;8.28;100.00
35151;BME280;55720;51.972;4.624;2023-04-07T06:26:51;100963.16;;;8.30;100.00
35151;BME280;55720;51.972;4.624;2023-04-07T06:29:17;100945.19;;;8.47;100.00
35151;BME280;55720;51.972;4.624;2023-04-07T06:31:42;100940.44;;;8.61;100.00
35151;BME280;55720;51.972;4.624;2023-04-07T06:34:07;100921.16;;;8.74;100.00
35151;BME280;55720;51.972;4.624;2023-04-07T06:36:33;100919.09;;;8.97;100.00
35151;BME280;55720;51.972;4.624;2023-04-07T06:38:59;100901.91;;;9.22;100.00
35151;BME280;55720;51.972;4.624;2023-04-07T06:41:24;100880.16;;;9.26;100.00
35151;BME280;55720;51.972;4.624;2023-04-07T06:43:50;100839.03;;;9.34;100.00
35151;BME280;55720;51.972;4.624;2023-04-07T06:46:16;100811.81;;;9.29;100.00
35151;BME280;55720;51.972;4.624;2023-04-07T06:48:41;100783.41;;;9.34;100.00
35151;BME280;55720;51.972;4.624;2023-04-07T06:51:07;100789.59;;;9.22;100.00
35151;BME280;55720;51.972;4.624;2023-04-07T06:53:32;100785.53;;;9.20;100.00
35151;BME280;55720;51.972;4.624;2023-04-07T06:56:09;100793.09;;;9.40;100.00
35151;BME280;55720;51.972;4.624;2023-04-07T06:58:35;100786.16;;;9.34;100.00
35151;BME280;55720;51.972;4.624;2023-04-07T07:01:01;100802.59;;;9.34;100.00
35151;BME280;55720;51.972;4.624;2023-04-07T07:03:27;100808.41;;;9.32;100.00
35151;BME280;55720;51.972;4.624;2023-04-07T07:05:57;100818.59;;;9.15;100.00
35151;BME280;55720;51.972;4.624;2023-04-07T07:08:24;100824.38;;;9.05;100.00
35151;BME280;55720;51.972;4.624;2023-04-07T07:10:50;100855.25;;;8.62;100.00
35151;BME280;55720;51.972;4.624;2023-04-07T07:13:16;100861.88;;;8.70;100.00
35151;BME280;55720;51.972;4.624;2023-04-07T07:15:42;100863.81;;;8.78;100.00
35151;BME280;55720;51.972;4.624;2023-04-07T07:18:07;100873.94;;;8.60;100.00
35151;BME280;55720;51.972;4.624;2023-04-07T07:20:32;100881.16;;;8.56;100.00
35151;BME280;55720;51.972;4.624;2023-04-07T07:22:58;100884.06;;;8.60;100.00
35151;BME280;55720;51.972;4.624;2023-04-07T07:25:24;100890.53;;;8.64;100.00
35151;BME280;55720;51.972;4.624;2023-04-07T07:27:51;100898.41;;;8.57;100.00
35151;BME280;55720;51.972;4.624;2023-04-07T07:30:19;100908.19;;;8.58;100.00
35151;BME280;55720;51.972;4.624;2023-04-07T07:32:45;100906.66;;;8.74;100.00
35151;BME280;55720;51.972;4.624;2023-04-07T07:35:10;100911.75;;;8.58;100.00
35151;BME280;55720;51.972;4.624;2023-04-07T07:37:35;100917.38;;;8.62;100.00
35151;BME280;55720;51.972;4.624;2023-04-07T07:40:01;100913.09;;;8.78;100.00
35151;BME280;55720;51.972;4.624;2023-04-07T07:42:26;100924.22;;;8.81;100.00
35151;BME280;55720;51.972;4.624;2023-04-07T07:44:52;100911.56;;;9.20;100.00
35151;BME280;55720;51.972;4.624;2023-04-07T07:47:17;100926.88;;;9.47;100.00
35151;BME280;55720;51.972;4.624;2023-04-07T07:49:42;100947.50;;;9.44;100.00
35151;BME280;55720;51.972;4.624;2023-04-07T07:52:08;100968.47;;;9.40;100.00
35151;BME280;55720;51.972;4.624;2023-04-07T07:54:33;100980.06;;;9.37;100.00
35151;BME280;55720;51.972;4.624;2023-04-07T07:56:58;100985.72;;;9.32;100.00
35151;BME280;55720;51.972;4.624;2023-04-07T07:59:24;101003.28;;;9.39;100.00
35151;BME280;55720;51.972;4.624;2023-04-07T08:01:49;100994.25;;;9.30;100.00
35151;BME280;55720;51.972;4.624;2023-04-07T08:04:15;101007.00;;;9.44;100.00
35151;BME280;55720;51.972;4.624;2023-04-07T08:06:40;101017.13;;;9.34;100.00
35151;BME280;55720;51.972;4.624;2023-04-07T08:09:06;101030.38;;;9.50;100.00
35151;BME280;55720;51.972;4.624;2023-04-07T08:11:32;101042.78;;;9.38;100.00
35151;BME280;55720;51.972;4.624;2023-04-07T08:13:57;101046.97;;;9.45;100.00
35151;BME280;55720;51.972;4.624;2023-04-07T08:16:23;101059.19;;;9.30;100.00
35151;BME280;55720;51.972;4.624;2023-04-07T08:18:48;101070.47;;;9.28;100.00
35151;BME280;55720;51.972;4.624;2023-04-07T08:21:14;101085.75;;;9.21;100.00
35151;BME280;55720;51.972;4.624;2023-04-07T08:23:39;101095.22;;;9.54;100.00
35151;BME280;55720;51.972;4.624;2023-04-07T08:26:05;101123.72;;;9.45;100.00
35151;BME280;55720;51.972;4.624;2023-04-07T08:28:30;101132.41;;;9.38;100.00
35151;BME280;55720;51.972;4.624;2023-04-07T08:30:55;101136.00;;;9.56;100.00
35151;BME280;55720;51.972;4.624;2023-04-07T08:33:21;101139.72;;;9.60;100.00
35151;BME280;55720;51.972;4.624;2023-04-07T08:35:46;101147.81;;;9.73;100.00
35151;BME280;55720;51.972;4.624;2023-04-07T08:38:12;101158.00;;;9.81;100.00
35151;BME280;55720;51.972;4.624;2023-04-07T08:40:37;101170.53;;;9.57;100.00
35151;BME280;55720;51.972;4.624;2023-04-07T08:43:07;101175.69;;;9.67;100.00
35151;BME280;55720;51.972;4.624;2023-04-07T08:45:37;101194.66;;;9.46;100.00
35151;BME280;55720;51.972;4.624;2023-04-07T08:48:04;101187.72;;;9.49;100.00
35151;BME280;55720;51.972;4.624;2023-04-07T08:50:35;101187.44;;;9.50;100.00
35151;BME280;55720;51.972;4.624;2023-04-07T08:53:04;101198.69;;;9.40;100.00
35151;BME280;55720;51.972;4.624;2023-04-07T08:55:31;101195.78;;;9.45;100.00
35151;BME280;55720;51.972;4.624;2023-04-07T08:57:56;101187.72;;;9.49;100.00
35151;BME280;55720;51.972;4.624;2023-04-07T09:00:22;101193.91;;;9.63;100.00
35151;BME280;55720;51.972;4.624;2023-04-07T09:02:48;101187.53;;;9.76;100.00
35151;BME280;55720;51.972;4.624;2023-04-07T09:05:15;101191.63;;;9.56;100.00
35151;BME280;55720;51.972;4.624;2023-04-07T09:07:41;101187.69;;;9.79;100.00
35151;BME280;55720;51.972;4.624;2023-04-07T09:10:10;101191.94;;;9.94;100.00
35151;BME280;55720;51.972;4.624;2023-04-07T09:12:36;101190.16;;;9.98;100.00
35151;BME280;55720;51.972;4.624;2023-04-07T09:15:01;101197.00;;;9.70;100.00
35151;BME280;55720;51.972;4.624;2023-04-07T09:17:28;101187.78;;;9.57;100.00
35151;BME280;55720;51.972;4.624;2023-04-07T09:20:00;101173.38;;;9.52;100.00
35151;BME280;55720;51.972;4.624;2023-04-07T09:22:42;101157.50;;;9.71;100.00
35151;BME280;55720;51.972;4.624;2023-04-07T09:27:53;101143.38;;;9.95;100.00
35151;BME280;55720;51.972;4.624;2023-04-07T09:30:18;101157.91;;;10.12;100.00
35151;BME280;55720;51.972;4.624;2023-04-07T09:32:44;101158.72;;;10.38;100.00
35151;BME280;55720;51.972;4.624;2023-04-07T09:35:10;101179.91;;;10.38;100.00
35151;BME280;55720;51.972;4.624;2023-04-07T09:37:36;101181.97;;;10.50;100.00
35151;BME280;55720;51.972;4.624;2023-04-07T09:40:02;101204.91;;;10.36;100.00
35151;BME280;55720;51.972;4.624;2023-04-07T09:42:28;101214.47;;;10.48;100.00
35151;BME280;55720;51.972;4.624;2023-04-07T09:44:59;101220.41;;;10.50;100.00
35151;BME280;55720;51.972;4.624;2023-04-07T09:47:27;101240.22;;;10.12;100.00
35151;BME280;55720;51.972;4.624;2023-04-07T09:49:54;101237.84;;;10.19;100.00
35151;BME280;55720;51.972;4.624;2023-04-07T09:52:51;101250.66;;;9.93;100.00
35151;BME280;55720;51.972;4.624;2023-04-07T09:55:19;101239.06;;;10.13;100.00
35151;BME280;55720;51.972;4.624;2023-04-07T09:57:48;101242.94;;;10.04;100.00
35151;BME280;55720;51.972;4.624;2023-04-07T10:00:14;101228.19;;;10.48;100.00
35151;BME280;55720;51.972;4.624;2023-04-07T10:02:40;101236.91;;;10.75;100.00
35151;BME280;55720;51.972;4.624;2023-04-07T10:05:07;101257.75;;;10.59;100.00
35151;BME280;55720;51.972;4.624;2023-04-07T10:07:33;101272.41;;;10.38;100.00
35151;BME280;55720;51.972;4.624;2023-04-07T10:09:59;101279.75;;;10.11;100.00
35151;BME280;55720;51.972;4.624;2023-04-07T10:12:25;101263.69;;;10.35;100.00
35151;BME280;55720;51.972;4.624;2023-04-07T10:14:51;101261.78;;;10.70;100.00
35151;BME280;55720;51.972;4.624;2023-04-07T10:35:27;101304.84;;;10.27;100.00
35151;BME280;55720;51.972;4.624;2023-04-07T10:40:31;101294.25;;;10.60;100.00
35151;BME280;55720;51.972;4.624;2023-04-07T10:42:57;101307.19;;;10.59;100.00
35151;BME280;55720;51.972;4.624;2023-04-07T10:48:10;101313.63;;;10.72;100.00
35151;BME280;55720;51.972;4.624;2023-04-07T10:50:37;101309.41;;;10.57;100.00
35151;BME280;55720;51.972;4.624;2023-04-07T10:53:10;101304.56;;;10.37;100.00
35151;BME280;55720;51.972;4.624;2023-04-07T10:55:40;101301.78;;;10.28;100.00
35151;BME280;55720;51.972;4.624;2023-04-07T10:58:26;101270.84;;;10.88;100.00
35151;BME280;55720;51.972;4.624;2023-04-07T11:03:39;101302.19;;;10.70;100.00
35151;BME280;55720;51.972;4.624;2023-04-07T11:06:09;101311.56;;;10.12;100.00
35151;BME280;55720;51.972;4.624;2023-04-07T11:08:35;101279.16;;;10.31;100.00
35151;BME280;55720;51.972;4.624;2023-04-07T11:11:02;101282.28;;;9.99;100.00
35151;BME280;55720;51.972;4.624;2023-04-07T11:13:42;101259.28;;;9.78;100.00
35151;BME280;55720;51.972;4.624;2023-04-07T11:16:09;101236.16;;;10.10;100.00
35151;BME280;55720;51.972;4.624;2023-04-07T11:18:35;101216.38;;;10.47;100.00
35151;BME280;55720;51.972;4.624;2023-04-07T11:21:05;101224.47;;;10.61;100.00
35151;BME280;55720;51.972;4.624;2023-04-07T11:23:44;101235.94;;;10.71;100.00
35151;BME280;55720;51.972;4.624;2023-04-07T11:26:12;101250.56;;;10.24;100.00
35151;BME280;55720;51.972;4.624;2023-04-07T11:29:04;101236.59;;;10.60;100.00
35151;BME280;55720;51.972;4.624;2023-04-07T11:31:30;101244.97;;;10.89;100.00
35151;BME280;55720;51.972;4.624;2023-04-07T11:34:01;101251.59;;;10.97;100.00
35151;BME280;55720;51.972;4.624;2023-04-07T11:36:34;101273.59;;;10.62;100.00
35151;BME280;55720;51.972;4.624;2023-04-07T11:41:29;101288.56;;;10.39;100.00
35151;BME280;55720;51.972;4.624;2023-04-07T11:44:10;101292.31;;;10.60;100.00
35151;BME280;55720;51.972;4.624;2023-04-07T11:46:51;101295.22;;;10.55;100.00
35151;BME280;55720;51.972;4.624;2023-04-07T11:49:17;101291.03;;;10.92;100.00
35151;BME280;55720;51.972;4.624;2023-04-07T11:51:43;101300.56;;;10.86;100.00
35151;BME280;55720;51.972;4.624;2023-04-07T11:54:09;101327.47;;;10.32;100.00
35151;BME280;55720;51.972;4.624;2023-04-07T11:57:01;101329.59;;;10.05;100.00
35151;BME280;55720;51.972;4.624;2023-04-07T11:59:26;101332.69;;;9.81;100.00
35151;BME280;55720;51.972;4.624;2023-04-07T12:01:53;101307.78;;;10.00;100.00
35151;BME280;55720;51.972;4.624;2023-04-07T12:04:18;101291.66;;;10.07;100.00
35151;BME280;55720;51.972;4.624;2023-04-07T12:06:45;101296.16;;;9.94;100.00
35151;BME280;55720;51.972;4.624;2023-04-07T12:09:32;101291.75;;;10.15;100.00
35151;BME280;55720;51.972;4.624;2023-04-07T12:12:00;101294.66;;;10.19;100.00
35151;BME280;55720;51.972;4.624;2023-04-07T12:14:27;101305.47;;;10.15;100.00
35151;BME280;55720;51.972;4.624;2023-04-07T12:16:53;101311.38;;;10.09;100.00
35151;BME280;55720;51.972;4.624;2023-04-07T12:19:21;101315.84;;;9.96;100.00
35151;BME280;55720;51.972;4.624;2023-04-07T12:21:47;101311.94;;;10.28;100.00
35151;BME280;55720;51.972;4.624;2023-04-07T12:24:13;101321.66;;;10.34;100.00
35151;BME280;55720;51.972;4.624;2023-04-07T12:26:39;101327.22;;;10.68;100.00
35151;BME280;55720;51.972;4.624;2023-04-07T12:29:04;101346.88;;;10.53;100.00
35151;BME280;55720;51.972;4.624;2023-04-07T12:31:31;101357.09;;;10.70;100.00
35151;BME280;55720;51.972;4.624;2023-04-07T12:33:57;101371.00;;;10.73;100.00
35151;BME280;55720;51.972;4.624;2023-04-07T12:36:24;101384.56;;;10.78;100.00
35151;BME280;55720;51.972;4.624;2023-04-07T12:38:50;101393.00;;;10.91;100.00
35151;BME280;55720;51.972;4.624;2023-04-07T12:41:15;101407.56;;;11.08;100.00
35151;BME280;55720;51.972;4.624;2023-04-07T12:43:41;101425.81;;;10.87;100.00
35151;BME280;55720;51.972;4.624;2023-04-07T12:46:06;101437.59;;;10.96;100.00
35151;BME280;55720;51.972;4.624;2023-04-07T12:48:31;101443.50;;;10.55;100.00
35151;BME280;55720;51.972;4.624;2023-04-07T12:50:57;101441.69;;;10.51;100.00
35151;BME280;55720;51.972;4.624;2023-04-07T12:53:22;101445.19;;;10.12;100.00
35151;BME280;55720;51.972;4.624;2023-04-07T12:55:48;101423.47;;;10.24;100.00
35151;BME280;55720;51.972;4.624;2023-04-07T12:58:13;101410.19;;;10.48;100.00
35151;BME280;55720;51.972;4.624;2023-04-07T13:00:39;101406.47;;;10.53;100.00
35151;BME280;55720;51.972;4.624;2023-04-07T13:03:05;101408.56;;;10.47;100.00
35151;BME280;55720;51.972;4.624;2023-04-07T13:05:31;101410.53;;;10.55;100.00
35151;BME280;55720;51.972;4.624;2023-04-07T13:07:56;101401.88;;;10.31;100.00
35151;BME280;55720;51.972;4.624;2023-04-07T13:10:22;101395.78;;;10.34;100.00
35151;BME280;55720;51.972;4.624;2023-04-07T13:12:47;101392.53;;;10.32;100.00
35151;BME280;55720;51.972;4.624;2023-04-07T13:15:13;101394.78;;;10.38;100.00
35151;BME280;55720;51.972;4.624;2023-04-07T13:17:38;101392.00;;;10.21;100.00
35151;BME280;55720;51.972;4.624;2023-04-07T13:20:04;101387.97;;;10.27;100.00
35151;BME280;55720;51.972;4.624;2023-04-07T13:22:30;101396.00;;;10.15;100.00
35151;BME280;55720;51.972;4.624;2023-04-07T13:27:21;101392.38;;;10.06;100.00
35151;BME280;55720;51.972;4.624;2023-04-07T13:29:46;101379.94;;;10.40;100.00
35151;BME280;55720;51.972;4.624;2023-04-07T13:32:12;101373.22;;;10.54;100.00
35151;BME280;55720;51.972;4.624;2023-04-07T13:34:38;101382.56;;;10.45;100.00
35151;BME280;55720;51.972;4.624;2023-04-07T13:37:04;101388.94;;;10.23;100.00
35151;BME280;55720;51.972;4.624;2023-04-07T13:39:30;101379.44;;;10.29;100.00
35151;BME280;55720;51.972;4.624;2023-04-07T13:41:55;101365.88;;;10.32;100.00